sensor_id;sensor_type;location;lat;lon;timestamp;pressure;altitude;pressure_sealevel;temperature;humidity
40940;BME280;26666;50.156;7.700;2023-02-15T00:04:06;101958.31;;;3.25;100.00
40940;BME280;26666;50.156;7.700;2023-02-15T00:09:09;101949.47;;;3.59;100.00
40940;BME280;26666;50.156;7.700;2023-02-15T00:14:16;101940.50;;;3.68;100.00
40940;BME280;26666;50.156;7.700;2023-02-15T00:19:20;101945.59;;;3.71;100.00
40940;BME280;26666;50.156;7.700;2023-02-15T00:24:22;101947.03;;;3.53;100.00
40940;BME280;26666;50.156;7.700;2023-02-15T00:29:24;101944.50;;;3.50;100.00
40940;BME280;26666;50.156;7.700;2023-02-15T00:34:27;101941.69;;;3.56;100.00
40940;BME280;26666;50.156;7.700;2023-02-15T00:39:28;101939.53;;;3.70;100.00
40940;BME280;26666;50.156;7.700;2023-02-15T00:44:30;101934.78;;;3.55;100.00
40940;BME280;26666;50.156;7.700;2023-02-15T00:49:32;101929.63;;;3.52;100.00
40940;BME280;26666;50.156;7.700;2023-02-15T00:54:33;101936.31;;;3.62;100.00
40940;BME280;26666;50.156;7.700;2023-02-15T00:59:35;101930.06;;;3.66;100.00
40940;BME280;26666;50.156;7.700;2023-02-15T01:04:36;101928.78;;;3.51;100.00
40940;BME280;26666;50.156;7.700;2023-02-15T01:09:38;101924.41;;;3.52;100.00
40940;BME280;26666;50.156;7.700;2023-02-15T01:14:39;101924.06;;;3.34;100.00
40940;BME280;26666;50.156;7.700;2023-02-15T01:19:41;101918.59;;;3.42;100.00
40940;BME280;26666;50.156;7.700;2023-02-15T01:24:42;101921.78;;;3.52;100.00
40940;BME280;26666;50.156;7.700;2023-02-15T01:29:44;101915.53;;;3.58;100.00
40940;BME280;26666;50.156;7.700;2023-02-15T01:34:46;101912.94;;;3.56;100.00
40940;BME280;26666;50.156;7.700;2023-02-15T01:39:47;101905.88;;;3.60;100.00
40940;BME280;26666;50.156;7.700;2023-02-15T01:50:18;101908.78;;;3.22;100.00
40940;BME280;26666;50.156;7.700;2023-02-15T01:55:24;101895.47;;;3.30;100.00
40940;BME280;26666;50.156;7.700;2023-02-15T02:00:27;101901.81;;;3.51;100.00
40940;BME280;26666;50.156;7.700;2023-02-15T02:05:29;101907.41;;;3.39;100.00
40940;BME280;26666;50.156;7.700;2023-02-15T02:10:31;101906.69;;;3.33;100.00
40940;BME280;26666;50.156;7.700;2023-02-15T02:15:43;101905.63;;;3.41;100.00
40940;BME280;26666;50.156;7.700;2023-02-15T02:21:47;101896.97;;;3.39;100.00
40940;BME280;26666;50.156;7.700;2023-02-15T02:47:30;101869.91;;;3.40;100.00
40940;BME280;26666;50.156;7.700;2023-02-15T02:52:38;101861.00;;;3.47;100.00
40940;BME280;26666;50.156;7.700;2023-02-15T02:57:54;101854.16;;;3.43;100.00
40940;BME280;26666;50.156;7.700;2023-02-15T03:03:02;101850.34;;;3.53;100.00
40940;BME280;26666;50.156;7.700;2023-02-15T03:08:06;101845.31;;;3.47;100.00
40940;BME280;26666;50.156;7.700;2023-02-15T03:13:09;101840.41;;;3.64;100.00
40940;BME280;26666;50.156;7.700;2023-02-15T03:18:11;101838.63;;;3.10;100.00
40940;BME280;26666;50.156;7.700;2023-02-15T03:23:17;101825.97;;;3.24;100.00
40940;BME280;26666;50.156;7.700;2023-02-15T03:28:28;101826.69;;;3.29;100.00
40940;BME280;26666;50.156;7.700;2023-02-15T03:33:32;101822.84;;;3.13;100.00
40940;BME280;26666;50.156;7.700;2023-02-15T03:38:49;101809.66;;;3.18;100.00
40940;BME280;26666;50.156;7.700;2023-02-15T03:44:00;101819.16;;;3.20;100.00
40940;BME280;26666;50.156;7.700;2023-02-15T03:49:14;101813.22;;;2.87;100.00
40940;BME280;26666;50.156;7.700;2023-02-15T03:54:28;101816.22;;;3.31;100.00
40940;BME280;26666;50.156;7.700;2023-02-15T03:59:31;101809.91;;;3.36;100.00
40940;BME280;26666;50.156;7.700;2023-02-15T04:04:35;101805.59;;;3.35;100.00
40940;BME280;26666;50.156;7.700;2023-02-15T04:09:37;101807.84;;;3.46;100.00
40940;BME280;26666;50.156;7.700;2023-02-15T04:14:39;101815.75;;;3.45;100.00
40940;BME280;26666;50.156;7.700;2023-02-15T04:19:40;101822.28;;;3.31;100.00
40940;BME280;26666;50.156;7.700;2023-02-15T04:24:42;101828.06;;;3.13;100.00
40940;BME280;26666;50.156;7.700;2023-02-15T04:29:43;101821.97;;;3.14;100.00
40940;BME280;26666;50.156;7.700;2023-02-15T04:34:45;101822.06;;;3.09;100.00
40940;BME280;26666;50.156;7.700;2023-02-15T04:39:46;101814.31;;;3.08;100.00
40940;BME280;26666;50.156;7.700;2023-02-15T04:44:48;101815.69;;;3.20;100.00
40940;BME280;26666;50.156;7.700;2023-02-15T04:49:49;101815.44;;;3.27;100.00
40940;BME280;26666;50.156;7.700;2023-02-15T04:54:51;101813.41;;;3.37;100.00
40940;BME280;26666;50.156;7.700;2023-02-15T04:59:52;101810.06;;;3.32;100.00
40940;BME280;26666;50.156;7.700;2023-02-15T05:04:54;101809.03;;;3.38;100.00
40940;BME280;26666;50.156;7.700;2023-02-15T05:09:55;101807.50;;;3.30;100.00
40940;BME280;26666;50.156;7.700;2023-02-15T05:14:57;101802.78;;;3.42;100.00
40940;BME280;26666;50.156;7.700;2023-02-15T05:19:58;101798.56;;;3.38;100.00
40940;BME280;26666;50.156;7.700;2023-02-15T05:25:00;101796.47;;;2.94;100.00
40940;BME280;26666;50.156;7.700;2023-02-15T05:30:02;101793.38;;;3.36;100.00
40940;BME280;26666;50.156;7.700;2023-02-15T05:35:06;101796.56;;;3.19;100.00
40940;BME280;26666;50.156;7.700;2023-02-15T05:40:08;101809.47;;;3.24;100.00
40940;BME280;26666;50.156;7.700;2023-02-15T05:45:09;101796.91;;;3.07;100.00
40940;BME280;26666;50.156;7.700;2023-02-15T05:50:11;101798.78;;;3.31;100.00
40940;BME280;26666;50.156;7.700;2023-02-15T05:55:13;101802.75;;;3.15;100.00
40940;BME280;26666;50.156;7.700;2023-02-15T06:00:14;101801.09;;;3.12;100.00
40940;BME280;26666;50.156;7.700;2023-02-15T06:05:16;101801.09;;;2.84;100.00
40940;BME280;26666;50.156;7.700;2023-02-15T06:10:18;101808.31;;;3.32;100.00
40940;BME280;26666;50.156;7.700;2023-02-15T06:15:19;101808.69;;;3.20;100.00
40940;BME280;26666;50.156;7.700;2023-02-15T06:20:20;101809.50;;;3.22;100.00
40940;BME280;26666;50.156;7.700;2023-02-15T06:25:22;101810.91;;;3.06;100.00
40940;BME280;26666;50.156;7.700;2023-02-15T06:30:23;101806.25;;;3.15;100.00
40940;BME280;26666;50.156;7.700;2023-02-15T06:35:25;101810.69;;;3.12;100.00
40940;BME280;26666;50.156;7.700;2023-02-15T06:40:26;101813.44;;;3.07;100.00
40940;BME280;26666;50.156;7.700;2023-02-15T06:45:28;101819.47;;;3.38;100.00
40940;BME280;26666;50.156;7.700;2023-02-15T06:50:29;101806.69;;;3.02;100.00
40940;BME280;26666;50.156;7.700;2023-02-15T06:55:31;101809.53;;;3.21;100.00
40940;BME280;26666;50.156;7.700;2023-02-15T07:00:32;101812.63;;;3.05;100.00
40940;BME280;26666;50.156;7.700;2023-02-15T07:05:34;101818.66;;;3.07;100.00
40940;BME280;26666;50.156;7.700;2023-02-15T07:10:36;101826.66;;;3.31;100.00
40940;BME280;26666;50.156;7.700;2023-02-15T07:15:37;101823.19;;;3.02;100.00
40940;BME280;26666;50.156;7.700;2023-02-15T07:20:39;101822.41;;;2.99;100.00
40940;BME280;26666;50.156;7.700;2023-02-15T07:25:41;101823.16;;;3.04;100.00
40940;BME280;26666;50.156;7.700;2023-02-15T07:30:42;101822.38;;;3.00;100.00
40940;BME280;26666;50.156;7.700;2023-02-15T07:35:52;101823.59;;;2.88;100.00
40940;BME280;26666;50.156;7.700;2023-02-15T07:41:05;101816.94;;;2.78;100.00
40940;BME280;26666;50.156;7.700;2023-02-15T07:46:13;101817.47;;;2.60;100.00
40940;BME280;26666;50.156;7.700;2023-02-15T07:51:15;101821.19;;;2.82;100.00
40940;BME280;26666;50.156;7.700;2023-02-15T07:56:17;101819.88;;;2.67;100.00
40940;BME280;26666;50.156;7.700;2023-02-15T08:06:24;101803.47;;;3.20;100.00
40940;BME280;26666;50.156;7.700;2023-02-15T08:11:36;101808.84;;;3.15;100.00
40940;BME280;26666;50.156;7.700;2023-02-15T08:16:54;101795.75;;;3.44;100.00
40940;BME280;26666;50.156;7.700;2023-02-15T08:22:02;101784.09;;;3.27;100.00
40940;BME280;26666;50.156;7.700;2023-02-15T08:27:06;101779.03;;;2.94;100.00
40940;BME280;26666;50.156;7.700;2023-02-15T08:32:10;101769.88;;;3.36;100.00
40940;BME280;26666;50.156;7.700;2023-02-15T08:37:11;101763.44;;;3.46;100.00
40940;BME280;26666;50.156;7.700;2023-02-15T08:42:13;101766.00;;;3.48;100.00
40940;BME280;26666;50.156;7.700;2023-02-15T08:47:14;101760.81;;;3.46;100.00
40940;BME280;26666;50.156;7.700;2023-02-15T08:52:16;101759.88;;;3.49;100.00
40940;BME280;26666;50.156;7.700;2023-02-15T08:57:18;101756.59;;;3.42;100.00
40940;BME280;26666;50.156;7.700;2023-02-15T09:02:19;101751.06;;;3.51;100.00
40940;BME280;26666;50.156;7.700;2023-02-15T09:07:21;101748.78;;;3.67;100.00
40940;BME280;26666;50.156;7.700;2023-02-15T09:12:23;101743.34;;;3.73;100.00
40940;BME280;26666;50.156;7.700;2023-02-15T09:17:24;101745.81;;;3.78;100.00
40940;BME280;26666;50.156;7.700;2023-02-15T09:22:26;101745.59;;;3.84;100.00
40940;BME280;26666;50.156;7.700;2023-02-15T09:27:27;101744.84;;;4.06;100.00
40940;BME280;26666;50.156;7.700;2023-02-15T09:32:29;101755.78;;;3.92;100.00
40940;BME280;26666;50.156;7.700;2023-02-15T09:37:30;101752.81;;;3.78;100.00
40940;BME280;26666;50.156;7.700;2023-02-15T09:43:11;101748.03;;;3.89;100.00
40940;BME280;26666;50.156;7.700;2023-02-15T09:53:46;101772.44;;;4.14;100.00
40940;BME280;26666;50.156;7.700;2023-02-15T09:58:53;101770.63;;;3.40;100.00
40940;BME280;26666;50.156;7.700;2023-02-15T10:04:33;101764.94;;;3.27;100.00
40940;BME280;26666;50.156;7.700;2023-02-15T10:10:02;101765.72;;;4.07;100.00
40940;BME280;26666;50.156;7.700;2023-02-15T10:15:20;101765.13;;;3.74;100.00
40940;BME280;26666;50.156;7.700;2023-02-15T10:21:02;101771.16;;;3.76;100.00
40940;BME280;26666;50.156;7.700;2023-02-15T10:26:19;101771.78;;;3.83;100.00
40940;BME280;26666;50.156;7.700;2023-02-15T10:31:28;101776.97;;;4.57;100.00
40940;BME280;26666;50.156;7.700;2023-02-15T10:37:01;101767.72;;;4.24;100.00
40940;BME280;26666;50.156;7.700;2023-02-15T10:52:59;101760.78;;;4.69;100.00
40940;BME280;26666;50.156;7.700;2023-02-15T10:58:24;101750.22;;;4.94;100.00
40940;BME280;26666;50.156;7.700;2023-02-15T11:03:33;101737.97;;;5.17;100.00
40940;BME280;26666;50.156;7.700;2023-02-15T11:08:44;101730.44;;;5.09;99.70
40940;BME280;26666;50.156;7.700;2023-02-15T11:13:49;101724.34;;;5.08;100.00
40940;BME280;26666;50.156;7.700;2023-02-15T11:19:03;101704.06;;;5.34;100.00
40940;BME280;26666;50.156;7.700;2023-02-15T11:24:12;101701.88;;;5.23;100.00
40940;BME280;26666;50.156;7.700;2023-02-15T11:29:22;101703.28;;;5.32;99.48
40940;BME280;26666;50.156;7.700;2023-02-15T11:34:40;101692.53;;;5.38;99.05
40940;BME280;26666;50.156;7.700;2023-02-15T11:39:44;101686.81;;;5.28;98.72
40940;BME280;26666;50.156;7.700;2023-02-15T11:44:54;101679.34;;;5.19;98.72
40940;BME280;26666;50.156;7.700;2023-02-15T11:49:59;101670.78;;;5.36;100.00
40940;BME280;26666;50.156;7.700;2023-02-15T11:55:01;101670.34;;;5.47;98.52
40940;BME280;26666;50.156;7.700;2023-02-15T12:00:14;101672.53;;;5.56;99.83
40940;BME280;26666;50.156;7.700;2023-02-15T12:05:21;101658.63;;;5.54;98.69
40940;BME280;26666;50.156;7.700;2023-02-15T12:10:29;101658.53;;;5.57;100.00
40940;BME280;26666;50.156;7.700;2023-02-15T12:15:34;101656.28;;;5.68;98.56
40940;BME280;26666;50.156;7.700;2023-02-15T12:20:42;101643.50;;;5.61;100.00
40940;BME280;26666;50.156;7.700;2023-02-15T12:25:54;101640.28;;;5.75;98.63
40940;BME280;26666;50.156;7.700;2023-02-15T12:30:58;101637.94;;;5.87;99.10
40940;BME280;26666;50.156;7.700;2023-02-15T12:36:10;101631.22;;;5.82;98.38
40940;BME280;26666;50.156;7.700;2023-02-15T12:41:25;101628.94;;;5.93;98.40
40940;BME280;26666;50.156;7.700;2023-02-15T12:46:27;101611.97;;;6.02;97.78
40940;BME280;26666;50.156;7.700;2023-02-15T12:51:29;101602.03;;;5.50;100.00
40940;BME280;26666;50.156;7.700;2023-02-15T12:56:30;101601.50;;;5.81;98.47
40940;BME280;26666;50.156;7.700;2023-02-15T13:01:33;101600.94;;;5.93;98.50
40940;BME280;26666;50.156;7.700;2023-02-15T13:06:35;101588.19;;;5.86;98.00
40940;BME280;26666;50.156;7.700;2023-02-15T13:11:38;101586.66;;;5.61;99.67
40940;BME280;26666;50.156;7.700;2023-02-15T13:16:44;101577.25;;;5.57;100.00
40940;BME280;26666;50.156;7.700;2023-02-15T13:21:52;101574.63;;;5.76;99.79
40940;BME280;26666;50.156;7.700;2023-02-15T13:26:56;101569.47;;;5.75;99.94
40940;BME280;26666;50.156;7.700;2023-02-15T13:42:58;101556.41;;;5.73;100.00
40940;BME280;26666;50.156;7.700;2023-02-15T13:53:28;101553.44;;;5.62;100.00
40940;BME280;26666;50.156;7.700;2023-02-15T13:59:17;101557.13;;;5.77;99.29
40940;BME280;26666;50.156;7.700;2023-02-15T14:15:34;101557.16;;;5.56;100.00
40940;BME280;26666;50.156;7.700;2023-02-15T14:20:51;101551.47;;;5.27;100.00
40940;BME280;26666;50.156;7.700;2023-02-15T14:25:59;101547.25;;;5.44;100.00
40940;BME280;26666;50.156;7.700;2023-02-15T14:31:03;101543.41;;;5.32;100.00
40940;BME280;26666;50.156;7.700;2023-02-15T14:36:08;101544.31;;;5.31;100.00
40940;BME280;26666;50.156;7.700;2023-02-15T14:41:30;101559.34;;;5.27;100.00
40940;BME280;26666;50.156;7.700;2023-02-15T14:56:43;101547.06;;;5.67;100.00
40940;BME280;26666;50.156;7.700;2023-02-15T15:01:54;101534.09;;;5.45;100.00
40940;BME280;26666;50.156;7.700;2023-02-15T15:22:35;101539.91;;;4.71;100.00
40940;BME280;26666;50.156;7.700;2023-02-15T15:27:52;101542.31;;;4.76;100.00
40940;BME280;26666;50.156;7.700;2023-02-15T15:43:35;101548.16;;;5.03;100.00
40940;BME280;26666;50.156;7.700;2023-02-15T15:48:42;101538.28;;;5.10;100.00
40940;BME280;26666;50.156;7.700;2023-02-15T15:53:46;101539.53;;;4.38;100.00
40940;BME280;26666;50.156;7.700;2023-02-15T15:58:52;101537.75;;;4.81;100.00
40940;BME280;26666;50.156;7.700;2023-02-15T16:03:57;101542.31;;;4.76;100.00
40940;BME280;26666;50.156;7.700;2023-02-15T16:09:19;101539.53;;;4.38;100.00
40940;BME280;26666;50.156;7.700;2023-02-15T16:14:29;101544.00;;;4.57;100.00
40940;BME280;26666;50.156;7.700;2023-02-15T16:19:37;101545.31;;;4.67;100.00
40940;BME280;26666;50.156;7.700;2023-02-15T16:29:50;101540.75;;;4.51;100.00
40940;BME280;26666;50.156;7.700;2023-02-15T16:35:01;101541.72;;;4.27;100.00
40940;BME280;26666;50.156;7.700;2023-02-15T16:40:03;101533.84;;;4.49;100.00
40940;BME280;26666;50.156;7.700;2023-02-15T16:45:11;101540.56;;;4.12;100.00
40940;BME280;26666;50.156;7.700;2023-02-15T16:50:25;101536.94;;;4.38;100.00
40940;BME280;26666;50.156;7.700;2023-02-15T16:55:35;101543.19;;;4.34;100.00
40940;BME280;26666;50.156;7.700;2023-02-15T17:00:38;101542.72;;;4.24;100.00
40940;BME280;26666;50.156;7.700;2023-02-15T17:05:41;101551.09;;;4.32;100.00
40940;BME280;26666;50.156;7.700;2023-02-15T17:21:24;101554.13;;;4.22;100.00
40940;BME280;26666;50.156;7.700;2023-02-15T17:26:36;101549.34;;;4.11;100.00
40940;BME280;26666;50.156;7.700;2023-02-15T17:31:38;101553.66;;;4.12;100.00
40940;BME280;26666;50.156;7.700;2023-02-15T17:36:57;101547.69;;;4.08;100.00
40940;BME280;26666;50.156;7.700;2023-02-15T17:41:58;101543.66;;;4.22;100.00
40940;BME280;26666;50.156;7.700;2023-02-15T17:47:00;101546.84;;;4.08;100.00
40940;BME280;26666;50.156;7.700;2023-02-15T17:52:01;101550.59;;;4.01;100.00
40940;BME280;26666;50.156;7.700;2023-02-15T17:57:12;101544.03;;;4.12;100.00
40940;BME280;26666;50.156;7.700;2023-02-15T18:02:13;101543.19;;;4.12;100.00
40940;BME280;26666;50.156;7.700;2023-02-15T18:07:16;101542.19;;;3.92;100.00
40940;BME280;26666;50.156;7.700;2023-02-15T18:12:30;101538.19;;;4.06;100.00
40940;BME280;26666;50.156;7.700;2023-02-15T18:17:37;101546.44;;;3.73;100.00
40940;BME280;26666;50.156;7.700;2023-02-15T18:22:40;101549.25;;;3.90;100.00
40940;BME280;26666;50.156;7.700;2023-02-15T18:27:42;101544.03;;;3.90;100.00
40940;BME280;26666;50.156;7.700;2023-02-15T18:32:44;101549.09;;;3.95;100.00
40940;BME280;26666;50.156;7.700;2023-02-15T18:37:47;101554.09;;;4.01;100.00
40940;BME280;26666;50.156;7.700;2023-02-15T18:42:49;101551.81;;;3.92;100.00
40940;BME280;26666;50.156;7.700;2023-02-15T18:47:51;101551.25;;;3.84;100.00
40940;BME280;26666;50.156;7.700;2023-02-15T18:52:52;101556.06;;;3.94;100.00
40940;BME280;26666;50.156;7.700;2023-02-15T18:57:55;101565.69;;;3.94;100.00
40940;BME280;26666;50.156;7.700;2023-02-15T19:02:58;101564.72;;;3.49;100.00
40940;BME280;26666;50.156;7.700;2023-02-15T19:08:00;101570.72;;;3.28;100.00
40940;BME280;26666;50.156;7.700;2023-02-15T19:13:02;101570.66;;;3.06;100.00
40940;BME280;26666;50.156;7.700;2023-02-15T19:18:04;101573.53;;;2.98;100.00
40940;BME280;26666;50.156;7.700;2023-02-15T19:23:10;101576.81;;;3.03;100.00
40940;BME280;26666;50.156;7.700;2023-02-15T19:28:22;101580.47;;;2.97;100.00
40940;BME280;26666;50.156;7.700;2023-02-15T19:33:26;101573.44;;;2.74;100.00
40940;BME280;26666;50.156;7.700;2023-02-15T19:38:32;101584.63;;;2.51;100.00
40940;BME280;26666;50.156;7.700;2023-02-15T19:43:34;101575.41;;;2.68;100.00
40940;BME280;26666;50.156;7.700;2023-02-15T19:48:36;101572.28;;;2.56;100.00
40940;BME280;26666;50.156;7.700;2023-02-15T19:53:38;101582.25;;;2.70;100.00
40940;BME280;26666;50.156;7.700;2023-02-15T19:58:39;101574.34;;;2.73;100.00
40940;BME280;26666;50.156;7.700;2023-02-15T20:03:41;101576.53;;;2.32;100.00
40940;BME280;26666;50.156;7.700;2023-02-15T20:08:43;101577.97;;;2.41;100.00
40940;BME280;26666;50.156;7.700;2023-02-15T20:13:45;101567.50;;;2.43;100.00
40940;BME280;26666;50.156;7.700;2023-02-15T20:18:47;101565.66;;;2.46;100.00
40940;BME280;26666;50.156;7.700;2023-02-15T20:23:49;101582.41;;;2.66;100.00
40940;BME280;26666;50.156;7.700;2023-02-15T20:28:51;101582.31;;;2.42;100.00
40940;BME280;26666;50.156;7.700;2023-02-15T20:33:53;101575.94;;;2.51;100.00
40940;BME280;26666;50.156;7.700;2023-02-15T20:38:56;101576.19;;;2.43;100.00
40940;BME280;26666;50.156;7.700;2023-02-15T20:43:59;101577.25;;;2.38;100.00
40940;BME280;26666;50.156;7.700;2023-02-15T20:49:01;101575.28;;;2.44;100.00
40940;BME280;26666;50.156;7.700;2023-02-15T20:54:11;101571.06;;;2.40;100.00
40940;BME280;26666;50.156;7.700;2023-02-15T20:59:29;101574.34;;;2.47;100.00
40940;BME280;26666;50.156;7.700;2023-02-15T21:04:32;101578.53;;;2.24;100.00
40940;BME280;26666;50.156;7.700;2023-02-15T21:09:34;101579.88;;;2.38;100.00
40940;BME280;26666;50.156;7.700;2023-02-15T21:14:36;101587.00;;;2.31;100.00
40940;BME280;26666;50.156;7.700;2023-02-15T21:19:38;101588.91;;;2.54;100.00
40940;BME280;26666;50.156;7.700;2023-02-15T21:24:47;101587.34;;;2.75;100.00
40940;BME280;26666;50.156;7.700;2023-02-15T21:29:49;101594.41;;;2.45;100.00
40940;BME280;26666;50.156;7.700;2023-02-15T21:34:51;101591.34;;;2.32;100.00
40940;BME280;26666;50.156;7.700;2023-02-15T21:39:52;101587.84;;;2.31;100.00
40940;BME280;26666;50.156;7.700;2023-02-15T21:44:54;101586.53;;;2.73;100.00
40940;BME280;26666;50.156;7.700;2023-02-15T21:49:56;101581.22;;;2.21;100.00
40940;BME280;26666;50.156;7.700;2023-02-15T21:54:57;101580.72;;;2.38;100.00
40940;BME280;26666;50.156;7.700;2023-02-15T21:59:59;101581.50;;;2.40;100.00
40940;BME280;26666;50.156;7.700;2023-02-15T22:05:00;101577.22;;;2.11;100.00
40940;BME280;26666;50.156;7.700;2023-02-15T22:10:02;101579.84;;;2.09;100.00
40940;BME280;26666;50.156;7.700;2023-02-15T22:15:05;101581.28;;;1.91;100.00
40940;BME280;26666;50.156;7.700;2023-02-15T22:20:13;101572.69;;;1.88;100.00
40940;BME280;26666;50.156;7.700;2023-02-15T22:25:17;101573.31;;;1.96;100.00
40940;BME280;26666;50.156;7.700;2023-02-15T22:35:28;101571.84;;;2.15;100.00
40940;BME280;26666;50.156;7.700;2023-02-15T22:40:33;101574.78;;;2.05;100.00
40940;BME280;26666;50.156;7.700;2023-02-15T22:45:36;101575.56;;;2.08;100.00
40940;BME280;26666;50.156;7.700;2023-02-15T22:50:37;101581.84;;;2.29;100.00
40940;BME280;26666;50.156;7.700;2023-02-15T22:55:40;101574.22;;;2.23;100.00
40940;BME280;26666;50.156;7.700;2023-02-15T23:00:42;101566.50;;;2.47;100.00
40940;BME280;26666;50.156;7.700;2023-02-15T23:05:45;101576.50;;;2.34;100.00
40940;BME280;26666;50.156;7.700;2023-02-15T23:10:53;101575.72;;;2.30;100.00
40940;BME280;26666;50.156;7.700;2023-02-15T23:15:58;101573.53;;;2.45;100.00
40940;BME280;26666;50.156;7.700;2023-02-15T23:21:02;101566.56;;;2.45;100.00
40940;BME280;26666;50.156;7.700;2023-02-15T23:26:19;101567.00;;;2.31;100.00
40940;BME280;26666;50.156;7.700;2023-02-15T23:31:33;101554.16;;;2.52;100.00
40940;BME280;26666;50.156;7.700;2023-02-15T23:36:38;101550.28;;;2.37;100.00
40940;BME280;26666;50.156;7.700;2023-02-15T23:41:40;101544.59;;;2.52;100.00
40940;BME280;26666;50.156;7.700;2023-02-15T23:46:44;101543.78;;;2.77;100.00
40940;BME280;26666;50.156;7.700;2023-02-15T23:51:52;101545.78;;;2.42;100.00
40940;BME280;26666;50.156;7.700;2023-02-15T23:56:58;101536.50;;;2.33;100.00
